Time;durP1;ratioP1;P1;durP2;ratioP2;P2;SDS_P1;SDS_P2;PMS_P1;PMS_P2;Temp;Humidity;BMP_temperature;BMP_pressure;BME280_temperature;BME280_humidity;BME280_pressure;Samples;Min_cycle;Max_cycle;Signal;HPM_P1;HPM_P2
2021/06/16 00:02:21;;;;;;;7.57;5.40;;;;;;;;;;5082616;28;20090;-58
2021/06/16 00:04:49;;;;;;;11.88;5.65;;;;;;;;;;5088673;28;20135;-59
2021/06/16 00:07:19;;;;;;;8.27;5.57;;;;;;;;;;5072948;28;20135;-58
2021/06/16 00:09:47;;;;;;;10.50;5.75;;;;;;;;;;5081049;28;20040;-58
2021/06/16 00:12:15;;;;;;;7.35;5.03;;;;;;;;;;5086978;28;20048;-58
2021/06/16 00:14:44;;;;;;;9.77;5.38;;;;;;;;;;5085937;28;20047;-58
2021/06/16 00:17:12;;;;;;;8.82;5.85;;;;;;;;;;5080077;28;20052;-59
2021/06/16 00:19:41;;;;;;;10.07;5.22;;;;;;;;;;5091585;28;20483;-58
2021/06/16 00:22:09;;;;;;;12.35;5.47;;;;;;;;;;5091759;28;20143;-59
2021/06/16 00:24:38;;;;;;;8.55;5.88;;;;;;;;;;5090786;28;20127;-59
2021/06/16 00:27:07;;;;;;;9.20;5.60;;;;;;;;;;5091074;28;20142;-58
2021/06/16 00:29:36;;;;;;;9.13;5.47;;;;;;;;;;5088683;28;20055;-58
2021/06/16 00:32:04;;;;;;;10.48;5.85;;;;;;;;;;5074257;28;20061;-58
2021/06/16 00:34:32;;;;;;;10.15;5.50;;;;;;;;;;5089204;28;20075;-59
2021/06/16 00:37:01;;;;;;;9.07;5.60;;;;;;;;;;5089905;28;20105;-58
2021/06/16 00:39:29;;;;;;;10.25;5.60;;;;;;;;;;5086247;28;20052;-58
2021/06/16 00:41:59;;;;;;;12.10;5.75;;;;;;;;;;5091934;28;20395;-58
2021/06/16 00:44:27;;;;;;;12.02;5.70;;;;;;;;;;5086514;28;20055;-58
2021/06/16 00:46:56;;;;;;;8.98;5.90;;;;;;;;;;5090858;28;20135;-58
2021/06/16 00:49:24;;;;;;;9.10;5.13;;;;;;;;;;5083765;28;20047;-58
2021/06/16 00:51:52;;;;;;;10.73;5.68;;;;;;;;;;5072437;28;20274;-58
2021/06/16 00:54:20;;;;;;;10.65;5.47;;;;;;;;;;5085973;28;20040;-58
2021/06/16 00:56:49;;;;;;;12.65;6.30;;;;;;;;;;5088428;28;20131;-59
2021/06/16 00:59:18;;;;;;;8.60;5.50;;;;;;;;;;5086578;28;20079;-58
2021/06/16 01:01:48;;;;;;;8.38;5.20;;;;;;;;;;5089495;28;20451;-58
2021/06/16 01:04:18;;;;;;;10.35;5.13;;;;;;;;;;5088789;28;20040;-59
2021/06/16 01:06:49;;;;;;;8.40;5.43;;;;;;;;;;5087041;28;20551;-58
2021/06/16 01:09:18;;;;;;;12.00;6.07;;;;;;;;;;5089530;28;20048;-58
2021/06/16 01:11:52;;;;;;;11.02;5.35;;;;;;;;;;5080977;28;20080;-59
2021/06/16 01:14:23;;;;;;;9.23;5.55;;;;;;;;;;5086360;28;20054;-58
2021/06/16 01:16:53;;;;;;;8.07;5.60;;;;;;;;;;5088859;28;20120;-59
2021/06/16 01:19:32;;;;;;;9.98;5.30;;;;;;;;;;5087540;28;20056;-59
2021/06/16 01:22:02;;;;;;;8.98;5.95;;;;;;;;;;5074895;28;20040;-58
2021/06/16 01:24:32;;;;;;;7.55;5.57;;;;;;;;;;5078031;28;20048;-59
2021/06/16 01:27:02;;;;;;;9.93;5.63;;;;;;;;;;5088951;28;20052;-58
2021/06/16 01:29:32;;;;;;;10.30;5.32;;;;;;;;;;5089956;28;20439;-58
2021/06/16 01:32:01;;;;;;;10.05;5.85;;;;;;;;;;5079460;28;20130;-58
2021/06/16 01:34:30;;;;;;;12.55;6.65;;;;;;;;;;5073563;28;20048;-59
2021/06/16 01:36:59;;;;;;;16.98;7.68;;;;;;;;;;5077308;28;20502;-58
2021/06/16 01:39:30;;;;;;;14.25;6.60;;;;;;;;;;5090576;28;20130;-58
2021/06/16 01:41:59;;;;;;;10.07;6.10;;;;;;;;;;5090966;28;20052;-58
2021/06/16 01:44:30;;;;;;;8.23;5.25;;;;;;;;;;5089909;28;20047;-59
2021/06/16 01:46:58;;;;;;;7.35;5.35;;;;;;;;;;5088971;28;20455;-58
2021/06/16 01:49:28;;;;;;;9.10;5.32;;;;;;;;;;5088897;28;20483;-58
2021/06/16 01:51:57;;;;;;;8.50;5.78;;;;;;;;;;5088986;28;20418;-58
2021/06/16 01:54:27;;;;;;;8.35;5.00;;;;;;;;;;5086519;28;20139;-59
2021/06/16 01:56:55;;;;;;;7.57;4.85;;;;;;;;;;5086601;28;20039;-59
2021/06/16 01:59:24;;;;;;;9.63;5.43;;;;;;;;;;5089116;28;20075;-58
2021/06/16 02:01:54;;;;;;;8.02;5.60;;;;;;;;;;5082164;28;20469;-58
2021/06/16 02:04:22;;;;;;;13.23;5.88;;;;;;;;;;5084216;28;20435;-59
2021/06/16 02:06:51;;;;;;;9.18;5.93;;;;;;;;;;5082144;28;20044;-58
2021/06/16 02:09:20;;;;;;;10.38;5.72;;;;;;;;;;5084949;28;20140;-58
2021/06/16 02:11:49;;;;;;;9.15;5.15;;;;;;;;;;5081977;28;20476;-58
2021/06/16 02:14:19;;;;;;;9.82;5.20;;;;;;;;;;5085857;28;20044;-58
2021/06/16 02:16:51;;;;;;;8.93;5.30;;;;;;;;;;5076703;28;20052;-58
2021/06/16 02:19:22;;;;;;;13.07;5.15;;;;;;;;;;5071308;28;20427;-58
2021/06/16 02:21:53;;;;;;;11.13;5.70;;;;;;;;;;5084925;28;20079;-59
2021/06/16 02:24:22;;;;;;;9.57;4.93;;;;;;;;;;5089761;28;20135;-59
2021/06/16 02:26:50;;;;;;;7.10;4.95;;;;;;;;;;5088871;28;20054;-59
2021/06/16 02:29:19;;;;;;;12.57;4.88;;;;;;;;;;5089625;28;20359;-59
2021/06/16 02:31:48;;;;;;;8.75;5.43;;;;;;;;;;5089895;28;20476;-58
2021/06/16 02:34:17;;;;;;;10.98;6.30;;;;;;;;;;5089193;28;20052;-59
2021/06/16 02:36:48;;;;;;;9.50;4.93;;;;;;;;;;5077204;28;20087;-59
2021/06/16 02:39:18;;;;;;;13.63;5.40;;;;;;;;;;5070372;28;20143;-59
2021/06/16 02:41:48;;;;;;;7.82;4.95;;;;;;;;;;5080661;28;20056;-58
2021/06/16 02:44:17;;;;;;;11.07;5.57;;;;;;;;;;5077012;28;20048;-58
2021/06/16 02:46:49;;;;;;;11.30;4.80;;;;;;;;;;5087457;28;20052;-58
2021/06/16 02:49:18;;;;;;;9.30;5.38;;;;;;;;;;5088839;28;20047;-58
2021/06/16 02:51:48;;;;;;;10.00;5.15;;;;;;;;;;5088168;28;20507;-58
2021/06/16 02:54:20;;;;;;;8.40;5.32;;;;;;;;;;5070852;28;20127;-58
2021/06/16 02:56:48;;;;;;;8.15;5.00;;;;;;;;;;5085044;28;20090;-59
2021/06/16 02:59:17;;;;;;;11.68;5.25;;;;;;;;;;5088773;28;20051;-58
2021/06/16 03:01:45;;;;;;;11.30;5.18;;;;;;;;;;5089175;28;20664;-59
2021/06/16 03:04:14;;;;;;;7.03;4.95;;;;;;;;;;5080734;28;20138;-58
2021/06/16 03:06:43;;;;;;;12.32;5.18;;;;;;;;;;5084321;28;20127;-59
2021/06/16 03:09:12;;;;;;;12.65;4.90;;;;;;;;;;5084936;28;20044;-58
2021/06/16 03:11:41;;;;;;;9.68;4.97;;;;;;;;;;5089524;28;20395;-58
2021/06/16 03:14:09;;;;;;;8.35;4.85;;;;;;;;;;5072660;28;20064;-58
2021/06/16 03:16:38;;;;;;;10.85;5.15;;;;;;;;;;5084726;28;20040;-59
2021/06/16 03:19:06;;;;;;;10.00;5.32;;;;;;;;;;5088552;28;20516;-58
2021/06/16 03:21:36;;;;;;;7.95;5.03;;;;;;;;;;5089278;28;20062;-59
2021/06/16 03:24:05;;;;;;;12.25;5.43;;;;;;;;;;5088663;28;20131;-59
2021/06/16 03:26:35;;;;;;;7.43;4.90;;;;;;;;;;5086835;28;20070;-58
2021/06/16 03:29:13;;;;;;;11.02;5.35;;;;;;;;;;5086609;28;20135;-59
2021/06/16 03:31:41;;;;;;;9.10;4.55;;;;;;;;;;5087828;28;20043;-58
2021/06/16 03:34:10;;;;;;;12.30;5.40;;;;;;;;;;5077913;28;20095;-59
2021/06/16 03:36:39;;;;;;;8.60;5.22;;;;;;;;;;5087808;28;20130;-59
2021/06/16 03:39:07;;;;;;;5.63;4.22;;;;;;;;;;5092980;28;20059;-58
2021/06/16 03:41:38;;;;;;;8.77;4.93;;;;;;;;;;5090246;28;20143;-58
2021/06/16 03:44:07;;;;;;;7.57;5.15;;;;;;;;;;5086621;28;20044;-58
2021/06/16 03:46:37;;;;;;;8.20;5.15;;;;;;;;;;5088940;28;20044;-58
2021/06/16 03:49:06;;;;;;;7.38;5.10;;;;;;;;;;5092874;28;20774;-59
2021/06/16 03:51:35;;;;;;;8.70;4.80;;;;;;;;;;5091998;28;20047;-59
2021/06/16 03:54:11;;;;;;;10.70;5.05;;;;;;;;;;5091533;28;20099;-58
2021/06/16 03:56:41;;;;;;;10.63;5.57;;;;;;;;;;5091442;28;20063;-58
2021/06/16 03:59:10;;;;;;;9.93;4.82;;;;;;;;;;5092731;28;20126;-58
2021/06/16 04:01:39;;;;;;;9.05;5.18;;;;;;;;;;5089746;28;20040;-59
2021/06/16 04:04:11;;;;;;;9.82;5.20;;;;;;;;;;5090689;28;20144;-59
2021/06/16 04:06:42;;;;;;;6.95;4.80;;;;;;;;;;5089114;28;20119;-58
2021/06/16 04:09:11;;;;;;;11.13;4.88;;;;;;;;;;5090674;28;20127;-59
2021/06/16 04:11:42;;;;;;;10.45;5.35;;;;;;;;;;5091946;28;20072;-58
2021/06/16 04:14:10;;;;;;;19.45;5.88;;;;;;;;;;5076443;28;20503;-59
2021/06/16 04:16:42;;;;;;;8.38;5.13;;;;;;;;;;5088357;28;20138;-58
2021/06/16 04:19:10;;;;;;;8.23;5.18;;;;;;;;;;5087003;28;20051;-58
2021/06/16 04:21:40;;;;;;;8.85;4.82;;;;;;;;;;5085882;28;20044;-59
2021/06/16 04:24:08;;;;;;;12.70;4.97;;;;;;;;;;5088016;28;20079;-58
2021/06/16 04:26:36;;;;;;;8.55;5.00;;;;;;;;;;5089080;28;20044;-58
2021/06/16 04:29:06;;;;;;;8.23;4.68;;;;;;;;;;5088353;28;20066;-58
2021/06/16 04:31:36;;;;;;;8.55;5.03;;;;;;;;;;5087595;28;20044;-59
2021/06/16 04:34:05;;;;;;;12.73;4.97;;;;;;;;;;5080549;28;20048;-59
2021/06/16 04:36:33;;;;;;;7.28;4.68;;;;;;;;;;5087293;28;20046;-58
2021/06/16 04:39:01;;;;;;;11.38;4.97;;;;;;;;;;5086650;28;20048;-59
2021/06/16 04:41:29;;;;;;;11.60;5.07;;;;;;;;;;5088433;28;20052;-58
2021/06/16 04:43:58;;;;;;;11.07;5.18;;;;;;;;;;5086220;28;20491;-59
2021/06/16 04:46:28;;;;;;;9.32;5.10;;;;;;;;;;5082834;28;20055;-59
2021/06/16 04:48:56;;;;;;;7.75;4.57;;;;;;;;;;5084966;28;20066;-58
2021/06/16 04:51:25;;;;;;;10.13;5.20;;;;;;;;;;5084622;28;20048;-58
2021/06/16 04:53:53;;;;;;;6.47;4.85;;;;;;;;;;5085790;28;20048;-58
2021/06/16 04:56:21;;;;;;;7.18;5.03;;;;;;;;;;5087032;28;20490;-59
2021/06/16 04:58:49;;;;;;;6.43;4.80;;;;;;;;;;5076765;28;20048;-59
2021/06/16 05:01:18;;;;;;;9.68;4.70;;;;;;;;;;5069098;28;20048;-58
2021/06/16 05:03:47;;;;;;;10.60;4.85;;;;;;;;;;5067390;28;20052;-58
2021/06/16 05:06:15;;;;;;;12.52;5.43;;;;;;;;;;5065774;28;20048;-58
2021/06/16 05:08:45;;;;;;;8.63;5.68;;;;;;;;;;5062113;28;20058;-58
2021/06/16 05:11:13;;;;;;;12.25;5.43;;;;;;;;;;5067294;28;20045;-58
2021/06/16 05:13:41;;;;;;;8.60;5.35;;;;;;;;;;5066623;28;20037;-59
2021/06/16 05:16:09;;;;;;;11.27;5.30;;;;;;;;;;5067401;28;20491;-59
2021/06/16 05:18:41;;;;;;;10.10;4.93;;;;;;;;;;5067106;28;20044;-59
2021/06/16 05:21:11;;;;;;;6.03;4.10;;;;;;;;;;5067752;28;20514;-59
2021/06/16 05:23:39;;;;;;;9.00;5.10;;;;;;;;;;5066204;28;20479;-59
2021/06/16 05:26:08;;;;;;;10.88;5.32;;;;;;;;;;5064266;28;20509;-59
2021/06/16 05:28:36;;;;;;;9.82;5.35;;;;;;;;;;5066754;28;20573;-59
2021/06/16 05:31:04;;;;;;;8.50;4.63;;;;;;;;;;5067217;28;20067;-59
2021/06/16 05:33:33;;;;;;;12.35;5.53;;;;;;;;;;5066509;28;20048;-59
2021/06/16 05:36:01;;;;;;;14.32;5.97;;;;;;;;;;5058638;28;20432;-59
2021/06/16 05:38:31;;;;;;;13.23;4.85;;;;;;;;;;5055928;28;20048;-59
2021/06/16 05:41:00;;;;;;;8.90;4.90;;;;;;;;;;5067164;28;20048;-59
2021/06/16 05:43:29;;;;;;;19.65;5.57;;;;;;;;;;5065741;28;20052;-59
2021/06/16 05:45:57;;;;;;;13.55;5.93;;;;;;;;;;5065485;28;20056;-60
2021/06/16 05:48:26;;;;;;;9.00;5.80;;;;;;;;;;5065033;28;20093;-59
2021/06/16 05:50:54;;;;;;;11.73;5.43;;;;;;;;;;5067066;28;20048;-59
2021/06/16 05:53:22;;;;;;;13.35;5.38;;;;;;;;;;5065350;28;20040;-60
2021/06/16 05:55:52;;;;;;;12.77;5.47;;;;;;;;;;5065344;28;20045;-59
2021/06/16 05:58:20;;;;;;;11.23;5.45;;;;;;;;;;5064934;28;20163;-60
2021/06/16 06:00:48;;;;;;;13.32;5.10;;;;;;;;;;5063802;28;20057;-60
2021/06/16 06:03:17;;;;;;;11.75;5.13;;;;;;;;;;5061030;28;20526;-59
2021/06/16 06:05:49;;;;;;;16.02;5.80;;;;;;;;;;5065288;28;20053;-59
2021/06/16 06:08:18;;;;;;;18.77;5.38;;;;;;;;;;5064833;28;20087;-59
2021/06/16 06:10:46;;;;;;;18.13;4.90;;;;;;;;;;5059291;28;20077;-60
2021/06/16 06:13:16;;;;;;;14.52;5.05;;;;;;;;;;5065006;28;20135;-60
2021/06/16 06:15:45;;;;;;;14.38;5.50;;;;;;;;;;5065152;28;20091;-59
2021/06/16 06:18:13;;;;;;;12.35;5.43;;;;;;;;;;5065647;28;20139;-60
2021/06/16 06:20:41;;;;;;;12.45;4.65;;;;;;;;;;5063607;28;20136;-59
2021/06/16 06:23:10;;;;;;;14.23;5.07;;;;;;;;;;5065726;28;20049;-60
2021/06/16 06:25:38;;;;;;;14.02;5.18;;;;;;;;;;5058777;28;20129;-59
2021/06/16 06:28:07;;;;;;;12.52;5.07;;;;;;;;;;5065914;28;20133;-59
2021/06/16 06:30:38;;;;;;;11.52;4.32;;;;;;;;;;5064351;28;20593;-59
2021/06/16 06:33:06;;;;;;;15.35;4.53;;;;;;;;;;5064315;28;20483;-60
2021/06/16 06:35:35;;;;;;;9.63;4.50;;;;;;;;;;5055578;28;20057;-59
2021/06/16 06:38:04;;;;;;;8.52;4.43;;;;;;;;;;5058147;28;20479;-59
2021/06/16 06:40:32;;;;;;;15.38;4.88;;;;;;;;;;5060158;28;20490;-59
2021/06/16 06:43:01;;;;;;;10.50;4.20;;;;;;;;;;5058779;28;20139;-59
2021/06/16 06:45:29;;;;;;;12.63;4.55;;;;;;;;;;5063714;28;20166;-60
2021/06/16 06:47:59;;;;;;;11.75;4.45;;;;;;;;;;5065647;28;20460;-60
2021/06/16 06:50:27;;;;;;;12.82;4.35;;;;;;;;;;5064832;28;20044;-59
2021/06/16 06:52:56;;;;;;;10.00;3.88;;;;;;;;;;5063317;28;20106;-59
2021/06/16 06:55:24;;;;;;;15.13;3.95;;;;;;;;;;5062846;28;20049;-59
2021/06/16 06:57:53;;;;;;;15.02;4.18;;;;;;;;;;5057707;28;20413;-59
2021/06/16 07:00:21;;;;;;;9.25;3.85;;;;;;;;;;5059396;28;20099;-59
2021/06/16 07:02:50;;;;;;;13.93;4.05;;;;;;;;;;5055130;28;20135;-59
2021/06/16 07:05:20;;;;;;;12.18;4.45;;;;;;;;;;5081795;28;20403;-59
2021/06/16 07:07:48;;;;;;;8.63;3.78;;;;;;;;;;5081036;28;20380;-59
2021/06/16 07:10:17;;;;;;;14.55;4.65;;;;;;;;;;5079333;28;20051;-59
2021/06/16 07:12:45;;;;;;;9.98;4.03;;;;;;;;;;5083408;28;20560;-59
2021/06/16 07:15:15;;;;;;;12.02;3.90;;;;;;;;;;5081424;28;20060;-59
2021/06/16 07:17:43;;;;;;;13.55;4.43;;;;;;;;;;5083523;28;20131;-60
2021/06/16 07:20:13;;;;;;;9.75;4.35;;;;;;;;;;5085509;28;20055;-59
2021/06/16 07:22:43;;;;;;;9.25;3.92;;;;;;;;;;5078852;28;20045;-59
2021/06/16 07:25:12;;;;;;;9.13;4.35;;;;;;;;;;5081790;28;21546;-60
2021/06/16 07:27:41;;;;;;;5.97;4.05;;;;;;;;;;5087194;28;20475;-60
2021/06/16 07:30:10;;;;;;;8.20;3.95;;;;;;;;;;5073334;28;20048;-57
2021/06/16 07:32:40;;;;;;;6.97;3.70;;;;;;;;;;5075324;28;20484;-58
2021/06/16 07:35:09;;;;;;;8.10;3.47;;;;;;;;;;5084769;28;20833;-58
2021/06/16 07:37:38;;;;;;;8.45;2.78;;;;;;;;;;5084434;28;20123;-59
2021/06/16 07:40:09;;;;;;;5.32;3.25;;;;;;;;;;5084337;28;20052;-59
2021/06/16 07:42:38;;;;;;;10.20;3.22;;;;;;;;;;5086936;28;20091;-58
2021/06/16 07:45:08;;;;;;;7.82;3.40;;;;;;;;;;5089001;28;20119;-59
2021/06/16 07:47:36;;;;;;;10.73;3.00;;;;;;;;;;5085329;28;20123;-59
2021/06/16 07:50:05;;;;;;;9.05;2.88;;;;;;;;;;5088766;28;20063;-59
2021/06/16 07:52:35;;;;;;;7.68;3.17;;;;;;;;;;5087664;28;20044;-59
2021/06/16 07:55:04;;;;;;;9.15;3.13;;;;;;;;;;5088590;28;20117;-58
2021/06/16 07:57:34;;;;;;;12.10;3.22;;;;;;;;;;5085655;28;20163;-59
2021/06/16 08:00:03;;;;;;;12.93;4.13;;;;;;;;;;5088763;28;20074;-59
2021/06/16 08:02:31;;;;;;;16.92;4.32;;;;;;;;;;5086267;28;20619;-59
2021/06/16 08:05:00;;;;;;;14.63;3.40;;;;;;;;;;5089554;28;20135;-58
2021/06/16 08:07:28;;;;;;;12.73;3.72;;;;;;;;;;5088396;28;20040;-59
2021/06/16 08:09:57;;;;;;;7.70;3.03;;;;;;;;;;5085095;28;20083;-59
2021/06/16 08:12:25;;;;;;;11.45;3.20;;;;;;;;;;5081378;28;20084;-58
2021/06/16 08:14:55;;;;;;;13.55;3.30;;;;;;;;;;5077856;28;20119;-58
2021/06/16 08:17:24;;;;;;;12.25;3.60;;;;;;;;;;5085109;28;20641;-58
2021/06/16 08:19:53;;;;;;;12.23;3.50;;;;;;;;;;5086417;28;20047;-62
2021/06/16 08:22:21;;;;;;;16.00;3.15;;;;;;;;;;5088706;28;20048;-59
2021/06/16 08:24:50;;;;;;;9.45;3.38;;;;;;;;;;5085670;28;20048;-58
2021/06/16 08:27:19;;;;;;;6.93;2.92;;;;;;;;;;5089630;28;20076;-59
2021/06/16 08:29:47;;;;;;;7.40;2.78;;;;;;;;;;5078081;28;20059;-58
2021/06/16 08:32:17;;;;;;;7.53;2.83;;;;;;;;;;5090656;28;20044;-59
2021/06/16 08:34:45;;;;;;;10.75;3.60;;;;;;;;;;5091961;28;20130;-58
2021/06/16 08:37:14;;;;;;;11.50;3.55;;;;;;;;;;5090639;28;20143;-58
2021/06/16 08:39:42;;;;;;;11.00;3.75;;;;;;;;;;5091475;28;20048;-59
2021/06/16 08:42:12;;;;;;;9.07;3.00;;;;;;;;;;5091655;28;20101;-58
2021/06/16 08:44:40;;;;;;;16.90;3.55;;;;;;;;;;5080703;28;20044;-59
2021/06/16 08:47:08;;;;;;;6.18;2.72;;;;;;;;;;5090572;28;20189;-59
2021/06/16 08:49:38;;;;;;;8.38;2.97;;;;;;;;;;5088588;28;20055;-58
2021/06/16 08:52:07;;;;;;;10.95;3.33;;;;;;;;;;5090627;28;20140;-58
2021/06/16 08:54:36;;;;;;;9.60;3.40;;;;;;;;;;5091362;28;20134;-58
2021/06/16 08:57:05;;;;;;;6.65;2.83;;;;;;;;;;5089760;28;20135;-58
2021/06/16 08:59:34;;;;;;;6.43;2.80;;;;;;;;;;5092445;28;20067;-58
2021/06/16 09:02:03;;;;;;;9.77;3.28;;;;;;;;;;5090682;28;20113;-58
2021/06/16 09:04:47;;;;;;;6.00;3.20;;;;;;;;;;5092630;28;20056;-58
2021/06/16 09:07:17;;;;;;;7.65;3.13;;;;;;;;;;5085614;28;20558;-58
2021/06/16 09:09:47;;;;;;;6.35;3.00;;;;;;;;;;5091734;28;20044;-59
2021/06/16 09:12:19;;;;;;;7.30;3.08;;;;;;;;;;5087057;28;20044;-59
2021/06/16 09:14:52;;;;;;;7.78;2.90;;;;;;;;;;5091771;28;20048;-59
2021/06/16 09:17:22;;;;;;;8.70;4.10;;;;;;;;;;5090212;28;20450;-58
2021/06/16 09:19:56;;;;;;;7.70;3.35;;;;;;;;;;5086607;28;20066;-58
2021/06/16 09:22:30;;;;;;;7.18;2.90;;;;;;;;;;5082609;28;20482;-58
2021/06/16 09:25:01;;;;;;;5.65;2.70;;;;;;;;;;5090567;28;20445;-58
2021/06/16 09:27:43;;;;;;;8.98;3.53;;;;;;;;;;5090378;28;20043;-58
2021/06/16 09:30:30;;;;;;;7.18;3.08;;;;;;;;;;5089477;28;20044;-58
2021/06/16 09:33:00;;;;;;;4.68;2.72;;;;;;;;;;5089763;28;20495;-58
2021/06/16 09:35:31;;;;;;;5.03;2.67;;;;;;;;;;5083012;28;20037;-58
2021/06/16 09:38:01;;;;;;;8.73;2.88;;;;;;;;;;5079384;28;20048;-59
2021/06/16 09:40:30;;;;;;;6.38;3.22;;;;;;;;;;5087069;28;20079;-59
2021/06/16 09:43:00;;;;;;;4.93;3.00;;;;;;;;;;5089800;28;20048;-58
2021/06/16 09:45:29;;;;;;;7.78;3.17;;;;;;;;;;5083603;28;20426;-58
2021/06/16 09:47:58;;;;;;;6.97;3.15;;;;;;;;;;5088271;28;20036;-59
2021/06/16 09:50:27;;;;;;;9.05;2.90;;;;;;;;;;5090064;28;20091;-58
2021/06/16 09:52:57;;;;;;;5.60;2.70;;;;;;;;;;5086105;28;20055;-59
2021/06/16 09:55:27;;;;;;;5.10;2.72;;;;;;;;;;5088335;28;20521;-59
2021/06/16 09:57:59;;;;;;;5.38;3.13;;;;;;;;;;5080482;28;20500;-58
2021/06/16 10:00:28;;;;;;;6.45;3.15;;;;;;;;;;5087455;28;20067;-59
2021/06/16 10:03:08;;;;;;;7.03;3.25;;;;;;;;;;5089496;28;20400;-59
2021/06/16 10:05:36;;;;;;;4.68;3.20;;;;;;;;;;5085572;28;20048;-59
2021/06/16 10:08:23;;;;;;;9.18;3.10;;;;;;;;;;5077252;28;21197;-59
2021/06/16 10:10:52;;;;;;;5.88;3.15;;;;;;;;;;5088172;28;20551;-59
2021/06/16 10:13:21;;;;;;;7.43;2.97;;;;;;;;;;5089304;28;20075;-59
2021/06/16 10:15:49;;;;;;;3.58;2.60;;;;;;;;;;5089553;28;20087;-59
2021/06/16 10:18:18;;;;;;;4.65;2.70;;;;;;;;;;5088287;28;20052;-58
2021/06/16 10:20:47;;;;;;;7.10;3.47;;;;;;;;;;5085721;28;20048;-58
2021/06/16 10:23:17;;;;;;;9.02;2.70;;;;;;;;;;5089080;28;20047;-58
2021/06/16 10:25:45;;;;;;;6.03;3.08;;;;;;;;;;5088707;28;20058;-58
2021/06/16 10:28:16;;;;;;;6.03;2.60;;;;;;;;;;5088700;28;20307;-58
2021/06/16 10:30:46;;;;;;;4.43;2.50;;;;;;;;;;5088189;28;20148;-60
2021/06/16 10:33:34;;;;;;;5.90;2.83;;;;;;;;;;5088942;28;20043;-59
2021/06/16 10:36:13;;;;;;;5.15;2.35;;;;;;;;;;5083177;28;20134;-59
2021/06/16 10:38:44;;;;;;;11.10;4.32;;;;;;;;;;5069689;28;20090;-59
2021/06/16 10:41:12;;;;;;;4.57;2.70;;;;;;;;;;5076946;28;20054;-59
2021/06/16 10:43:46;;;;;;;4.90;2.80;;;;;;;;;;5084439;28;20092;-59
2021/06/16 10:46:16;;;;;;;6.28;3.10;;;;;;;;;;5080373;28;20073;-60
2021/06/16 10:48:54;;;;;;;5.57;2.42;;;;;;;;;;5086892;28;20101;-59
2021/06/16 10:51:41;;;;;;;6.45;2.58;;;;;;;;;;5088397;28;20056;-59
2021/06/16 10:54:15;;;;;;;4.07;2.40;;;;;;;;;;5086018;28;20139;-59
2021/06/16 10:56:45;;;;;;;3.22;2.17;;;;;;;;;;5082552;28;20487;-59
2021/06/16 10:59:13;;;;;;;4.78;2.15;;;;;;;;;;5082790;28;20052;-58
2021/06/16 11:01:48;;;;;;;8.20;2.70;;;;;;;;;;5079137;28;20045;-59
2021/06/16 11:04:27;;;;;;;4.63;2.58;;;;;;;;;;5085427;28;20074;-59
2021/06/16 11:06:55;;;;;;;3.65;2.50;;;;;;;;;;5088018;28;20052;-59
2021/06/16 11:09:42;;;;;;;2.25;2.03;;;;;;;;;;5086473;28;20110;-59
2021/06/16 11:12:12;;;;;;;6.72;2.22;;;;;;;;;;5076328;28;20101;-59
2021/06/16 11:14:50;;;;;;;4.35;2.33;;;;;;;;;;5078883;28;20043;-59
2021/06/16 11:17:37;;;;;;;4.88;2.50;;;;;;;;;;5085858;28;20217;-59
2021/06/16 11:20:06;;;;;;;3.22;2.25;;;;;;;;;;5086373;28;20139;-59
2021/06/16 11:22:36;;;;;;;4.95;2.25;;;;;;;;;;5082419;28;20091;-59
2021/06/16 11:25:09;;;;;;;6.13;2.17;;;;;;;;;;5078155;28;20072;-59
2021/06/16 11:27:56;;;;;;;4.10;2.15;;;;;;;;;;5087880;28;20040;-59
2021/06/16 11:30:35;;;;;;;4.93;2.00;;;;;;;;;;5080103;28;20535;-59
2021/06/16 11:33:22;;;;;;;2.78;1.92;;;;;;;;;;5088306;28;20052;-59
2021/06/16 11:35:56;;;;;;;7.68;2.25;;;;;;;;;;5086879;28;20055;-58
2021/06/16 11:38:31;;;;;;;3.53;2.08;;;;;;;;;;5083900;28;20048;-58
2021/06/16 11:41:01;;;;;;;8.55;2.67;;;;;;;;;;5086610;28;20147;-59
2021/06/16 11:43:36;;;;;;;3.75;2.47;;;;;;;;;;5081877;28;20479;-59
2021/06/16 11:46:06;;;;;;;4.78;2.42;;;;;;;;;;5088056;28;20048;-59
2021/06/16 11:48:35;;;;;;;7.53;2.42;;;;;;;;;;5085542;28;20040;-59
2021/06/16 11:51:03;;;;;;;5.07;2.10;;;;;;;;;;5081348;28;20171;-58
2021/06/16 11:53:33;;;;;;;3.63;1.95;;;;;;;;;;5085251;28;20048;-58
2021/06/16 11:56:05;;;;;;;9.90;2.47;;;;;;;;;;5086581;28;20048;-58
2021/06/16 11:58:37;;;;;;;4.75;2.28;;;;;;;;;;5086092;28;20098;-59
2021/06/16 12:01:07;;;;;;;6.88;2.42;;;;;;;;;;5089928;28;20168;-59
2021/06/16 12:03:36;;;;;;;4.30;2.60;;;;;;;;;;5089088;28;20060;-58
2021/06/16 12:06:05;;;;;;;3.38;2.30;;;;;;;;;;5080787;28;20048;-58
2021/06/16 12:08:34;;;;;;;4.03;2.17;;;;;;;;;;5090768;28;20052;-58
2021/06/16 12:11:03;;;;;;;2.95;2.03;;;;;;;;;;5090658;28;20052;-58
2021/06/16 12:13:31;;;;;;;3.88;2.30;;;;;;;;;;5090249;28;20046;-59
2021/06/16 12:16:01;;;;;;;3.78;2.40;;;;;;;;;;5091327;28;20076;-59
2021/06/16 12:18:32;;;;;;;3.67;2.35;;;;;;;;;;5089959;28;20048;-58
2021/06/16 12:21:03;;;;;;;4.43;2.35;;;;;;;;;;5087019;28;20071;-58
2021/06/16 12:23:33;;;;;;;4.65;2.10;;;;;;;;;;5089992;28;20066;-58
2021/06/16 12:26:06;;;;;;;2.67;1.83;;;;;;;;;;5091726;28;20071;-59
2021/06/16 12:28:35;;;;;;;2.05;1.80;;;;;;;;;;5090690;28;20461;-59
2021/06/16 12:31:10;;;;;;;2.83;1.92;;;;;;;;;;5089670;28;20120;-59
2021/06/16 12:33:42;;;;;;;2.67;1.77;;;;;;;;;;5091553;28;20407;-58
2021/06/16 12:36:18;;;;;;;4.25;1.60;;;;;;;;;;5092039;28;20052;-59
2021/06/16 12:39:11;;;;;;;2.40;1.80;;;;;;;;;;1847742;28;10022967;-59
2021/06/16 12:41:40;;;;;;;2.33;1.67;;;;;;;;;;4031794;28;10000956;-58
2021/06/16 12:44:13;;;;;;;1.63;1.38;;;;;;;;;;5084211;28;20052;-58
2021/06/16 12:47:00;;;;;;;2.55;1.50;;;;;;;;;;5091416;28;20052;-59
2021/06/16 12:49:32;;;;;;;1.58;1.30;;;;;;;;;;5071866;28;20059;-59
2021/06/16 12:52:03;;;;;;;4.65;1.80;;;;;;;;;;5071179;28;20048;-59
2021/06/16 12:54:33;;;;;;;5.03;1.80;;;;;;;;;;5076459;28;20522;-59
2021/06/16 12:57:07;;;;;;;2.78;1.88;;;;;;;;;;5087129;28;20464;-58
2021/06/16 12:59:36;;;;;;;6.38;2.33;;;;;;;;;;5083217;28;20052;-58
2021/06/16 13:02:05;;;;;;;3.22;1.67;;;;;;;;;;5086421;28;20453;-58
2021/06/16 13:04:58;;;;;;;3.00;1.70;;;;;;;;;;5085221;28;20427;-59
2021/06/16 13:07:41;;;;;;;1.95;1.30;;;;;;;;;;5076213;28;20044;-58
2021/06/16 13:10:12;;;;;;;3.13;1.23;;;;;;;;;;5088058;28;20955;-58
2021/06/16 13:12:52;;;;;;;1.92;1.23;;;;;;;;;;5086957;28;20475;-58
2021/06/16 13:15:21;;;;;;;2.65;1.42;;;;;;;;;;5087635;28;20051;-59
2021/06/16 13:17:50;;;;;;;4.18;1.60;;;;;;;;;;5089712;28;20093;-59
2021/06/16 13:20:28;;;;;;;4.10;1.40;;;;;;;;;;5075705;28;20102;-59
2021/06/16 13:22:57;;;;;;;1.42;1.30;;;;;;;;;;5089363;28;20063;-59
2021/06/16 13:25:28;;;;;;;2.05;1.45;;;;;;;;;;5088467;28;20118;-58
2021/06/16 13:27:58;;;;;;;3.58;1.50;;;;;;;;;;5087617;28;20492;-58
2021/06/16 13:30:28;;;;;;;1.75;1.50;;;;;;;;;;5084933;28;20155;-58
2021/06/16 13:32:56;;;;;;;6.82;1.58;;;;;;;;;;5074911;28;20045;-58
2021/06/16 13:35:26;;;;;;;4.35;1.40;;;;;;;;;;5089468;28;20462;-58
2021/06/16 13:37:55;;;;;;;2.63;1.20;;;;;;;;;;5084072;28;20547;-58
2021/06/16 13:40:24;;;;;;;4.43;1.40;;;;;;;;;;5088107;28;20071;-59
2021/06/16 13:42:55;;;;;;;3.50;1.60;;;;;;;;;;5087818;28;20051;-59
2021/06/16 13:45:25;;;;;;;3.55;1.45;;;;;;;;;;5080163;28;20044;-58
2021/06/16 13:47:54;;;;;;;2.60;1.38;;;;;;;;;;5083861;28;20300;-59
2021/06/16 13:50:23;;;;;;;2.72;1.65;;;;;;;;;;5086112;28;20128;-59
2021/06/16 13:52:51;;;;;;;3.28;1.50;;;;;;;;;;5085628;28;20047;-58
2021/06/16 13:55:20;;;;;;;2.85;1.48;;;;;;;;;;5085482;28;20044;-58
2021/06/16 13:57:49;;;;;;;2.05;1.20;;;;;;;;;;5086243;28;20064;-59
2021/06/16 14:00:19;;;;;;;2.33;1.80;;;;;;;;;;5086669;28;20083;-58
2021/06/16 14:02:47;;;;;;;2.20;1.40;;;;;;;;;;5086247;28;20132;-58
2021/06/16 14:05:16;;;;;;;3.60;1.77;;;;;;;;;;5087206;28;20132;-59
2021/06/16 14:07:45;;;;;;;3.05;1.50;;;;;;;;;;5084481;28;20059;-58
2021/06/16 14:10:14;;;;;;;3.58;1.40;;;;;;;;;;5086440;28;20075;-58
2021/06/16 14:12:43;;;;;;;2.42;1.60;;;;;;;;;;5086859;28;20047;-58
2021/06/16 14:15:11;;;;;;;2.55;1.40;;;;;;;;;;5085725;28;20052;-58
2021/06/16 14:17:43;;;;;;;2.70;1.42;;;;;;;;;;5086707;28;20055;-59
2021/06/16 14:20:13;;;;;;;5.03;2.00;;;;;;;;;;5084778;28;20467;-59
2021/06/16 14:22:43;;;;;;;3.38;1.80;;;;;;;;;;5087006;28;20044;-58
2021/06/16 14:25:12;;;;;;;2.58;1.38;;;;;;;;;;5084645;28;20043;-58
2021/06/16 14:27:41;;;;;;;6.00;1.70;;;;;;;;;;5086467;28;20059;-58
2021/06/16 14:30:10;;;;;;;2.33;1.55;;;;;;;;;;5083472;28;20434;-58
2021/06/16 14:32:41;;;;;;;3.83;1.65;;;;;;;;;;5084681;28;20044;-59
2021/06/16 14:35:11;;;;;;;2.53;1.80;;;;;;;;;;5070821;28;20491;-58
2021/06/16 14:37:40;;;;;;;1.85;1.60;;;;;;;;;;5084201;28;20152;-59
2021/06/16 14:40:10;;;;;;;3.85;1.73;;;;;;;;;;5084826;28;20076;-58
2021/06/16 14:42:40;;;;;;;4.85;1.40;;;;;;;;;;5084547;28;20087;-59
2021/06/16 14:45:09;;;;;;;4.05;1.77;;;;;;;;;;5083993;28;20190;-59
2021/06/16 14:47:38;;;;;;;9.43;2.00;;;;;;;;;;5088056;28;20068;-59
2021/06/16 14:50:09;;;;;;;1.95;1.42;;;;;;;;;;5085792;28;20051;-59
2021/06/16 14:52:38;;;;;;;7.10;1.58;;;;;;;;;;5078018;28;20105;-58
2021/06/16 14:55:07;;;;;;;3.67;1.52;;;;;;;;;;5086044;28;20130;-59
2021/06/16 14:57:37;;;;;;;4.43;1.50;;;;;;;;;;5085224;28;20050;-59